sensor_id;sensor_type;location;lat;lon;timestamp;P1;durP1;ratioP1;P2;durP2;ratioP2
3881;SDS011;1956;53.482;10.238;2022-07-01T00:01:58;11.13;;;10.03;;
3881;SDS011;1956;53.482;10.238;2022-07-01T00:06:58;11.63;;;9.57;;
3881;SDS011;1956;53.482;10.238;2022-07-01T00:11:59;15.90;;;9.73;;
3881;SDS011;1956;53.482;10.238;2022-07-01T00:16:59;11.30;;;9.87;;
3881;SDS011;1956;53.482;10.238;2022-07-01T00:22:00;12.90;;;10.07;;
3881;SDS011;1956;53.482;10.238;2022-07-01T00:27:00;9.47;;;7.23;;
3881;SDS011;1956;53.482;10.238;2022-07-01T00:32:01;7.00;;;4.13;;
3881;SDS011;1956;53.482;10.238;2022-07-01T00:37:01;6.27;;;4.00;;
3881;SDS011;1956;53.482;10.238;2022-07-01T00:42:03;3.30;;;3.00;;
3881;SDS011;1956;53.482;10.238;2022-07-01T00:47:07;24.90;;;6.90;;
3881;SDS011;1956;53.482;10.238;2022-07-01T00:52:10;21.30;;;6.97;;
3881;SDS011;1956;53.482;10.238;2022-07-01T00:57:11;19.53;;;7.13;;
3881;SDS011;1956;53.482;10.238;2022-07-01T01:02:11;10.17;;;5.87;;
3881;SDS011;1956;53.482;10.238;2022-07-01T01:07:12;11.43;;;5.73;;
3881;SDS011;1956;53.482;10.238;2022-07-01T01:12:13;12.33;;;6.60;;
3881;SDS011;1956;53.482;10.238;2022-07-01T01:17:14;11.70;;;6.90;;
3881;SDS011;1956;53.482;10.238;2022-07-01T01:22:16;11.07;;;6.97;;
3881;SDS011;1956;53.482;10.238;2022-07-01T01:27:17;8.80;;;6.50;;
3881;SDS011;1956;53.482;10.238;2022-07-01T01:32:18;8.60;;;7.30;;
3881;SDS011;1956;53.482;10.238;2022-07-01T01:37:18;13.33;;;7.97;;
3881;SDS011;1956;53.482;10.238;2022-07-01T01:42:19;11.70;;;6.20;;
3881;SDS011;1956;53.482;10.238;2022-07-01T01:47:19;14.20;;;7.83;;
3881;SDS011;1956;53.482;10.238;2022-07-01T01:52:20;9.93;;;7.07;;
3881;SDS011;1956;53.482;10.238;2022-07-01T01:57:20;12.50;;;7.87;;
3881;SDS011;1956;53.482;10.238;2022-07-01T02:02:21;12.73;;;7.30;;
3881;SDS011;1956;53.482;10.238;2022-07-01T02:07:21;17.00;;;8.30;;
3881;SDS011;1956;53.482;10.238;2022-07-01T02:12:21;11.73;;;6.83;;
3881;SDS011;1956;53.482;10.238;2022-07-01T02:17:22;13.67;;;7.20;;
3881;SDS011;1956;53.482;10.238;2022-07-01T02:22:22;9.80;;;7.43;;
3881;SDS011;1956;53.482;10.238;2022-07-01T02:27:23;8.97;;;8.03;;
3881;SDS011;1956;53.482;10.238;2022-07-01T02:32:23;12.10;;;8.17;;
3881;SDS011;1956;53.482;10.238;2022-07-01T02:37:23;13.30;;;8.80;;
3881;SDS011;1956;53.482;10.238;2022-07-01T02:42:24;11.53;;;8.37;;
3881;SDS011;1956;53.482;10.238;2022-07-01T02:47:31;12.10;;;9.03;;
3881;SDS011;1956;53.482;10.238;2022-07-01T02:52:33;14.93;;;9.70;;
3881;SDS011;1956;53.482;10.238;2022-07-01T02:57:34;15.13;;;10.30;;
3881;SDS011;1956;53.482;10.238;2022-07-01T03:02:34;13.53;;;9.33;;
3881;SDS011;1956;53.482;10.238;2022-07-01T03:07:35;22.70;;;10.13;;
3881;SDS011;1956;53.482;10.238;2022-07-01T03:12:36;14.33;;;10.20;;
3881;SDS011;1956;53.482;10.238;2022-07-01T03:17:39;15.73;;;11.30;;
3881;SDS011;1956;53.482;10.238;2022-07-01T03:22:41;15.53;;;11.87;;
3881;SDS011;1956;53.482;10.238;2022-07-01T03:27:43;24.43;;;13.00;;
3881;SDS011;1956;53.482;10.238;2022-07-01T03:32:47;23.53;;;12.90;;
3881;SDS011;1956;53.482;10.238;2022-07-01T03:37:48;23.93;;;12.90;;
3881;SDS011;1956;53.482;10.238;2022-07-01T03:42:49;17.73;;;11.50;;
3881;SDS011;1956;53.482;10.238;2022-07-01T03:47:49;19.50;;;10.43;;
3881;SDS011;1956;53.482;10.238;2022-07-01T03:52:50;12.53;;;8.80;;
3881;SDS011;1956;53.482;10.238;2022-07-01T03:58:09;11.50;;;9.40;;
3881;SDS011;1956;53.482;10.238;2022-07-01T04:03:10;14.93;;;8.77;;
3881;SDS011;1956;53.482;10.238;2022-07-01T04:08:10;15.40;;;10.77;;
3881;SDS011;1956;53.482;10.238;2022-07-01T04:13:11;20.60;;;13.70;;
3881;SDS011;1956;53.482;10.238;2022-07-01T04:18:12;20.67;;;14.63;;
3881;SDS011;1956;53.482;10.238;2022-07-01T04:23:12;21.93;;;16.80;;
3881;SDS011;1956;53.482;10.238;2022-07-01T04:28:12;21.70;;;16.33;;
3881;SDS011;1956;53.482;10.238;2022-07-01T04:33:13;23.87;;;18.60;;
3881;SDS011;1956;53.482;10.238;2022-07-01T04:38:13;23.87;;;17.13;;
3881;SDS011;1956;53.482;10.238;2022-07-01T04:43:14;21.47;;;17.50;;
3881;SDS011;1956;53.482;10.238;2022-07-01T04:48:14;20.23;;;15.80;;
3881;SDS011;1956;53.482;10.238;2022-07-01T04:53:14;17.27;;;13.60;;
3881;SDS011;1956;53.482;10.238;2022-07-01T04:58:15;12.70;;;11.20;;
3881;SDS011;1956;53.482;10.238;2022-07-01T05:03:15;13.73;;;10.13;;
3881;SDS011;1956;53.482;10.238;2022-07-01T05:08:16;15.57;;;10.60;;
3881;SDS011;1956;53.482;10.238;2022-07-01T05:13:17;13.60;;;11.50;;
3881;SDS011;1956;53.482;10.238;2022-07-01T05:18:17;15.77;;;12.97;;
3881;SDS011;1956;53.482;10.238;2022-07-01T05:23:36;16.50;;;11.93;;
3881;SDS011;1956;53.482;10.238;2022-07-01T05:28:37;17.30;;;13.17;;
3881;SDS011;1956;53.482;10.238;2022-07-01T05:33:37;22.83;;;12.73;;
3881;SDS011;1956;53.482;10.238;2022-07-01T05:38:37;22.57;;;12.97;;
3881;SDS011;1956;53.482;10.238;2022-07-01T05:43:38;19.83;;;12.77;;
3881;SDS011;1956;53.482;10.238;2022-07-01T05:48:38;18.03;;;10.87;;
3881;SDS011;1956;53.482;10.238;2022-07-01T05:53:39;20.93;;;9.73;;
3881;SDS011;1956;53.482;10.238;2022-07-01T05:58:39;11.63;;;6.30;;
3881;SDS011;1956;53.482;10.238;2022-07-01T06:03:39;17.10;;;6.33;;
3881;SDS011;1956;53.482;10.238;2022-07-01T06:08:40;9.77;;;5.20;;
3881;SDS011;1956;53.482;10.238;2022-07-01T06:13:40;13.07;;;4.70;;
3881;SDS011;1956;53.482;10.238;2022-07-01T06:18:41;6.80;;;4.30;;
3881;SDS011;1956;53.482;10.238;2022-07-01T06:23:41;9.30;;;3.80;;
3881;SDS011;1956;53.482;10.238;2022-07-01T06:28:42;10.00;;;3.70;;
3881;SDS011;1956;53.482;10.238;2022-07-01T06:33:42;7.83;;;3.60;;
3881;SDS011;1956;53.482;10.238;2022-07-01T06:38:42;12.73;;;4.07;;
3881;SDS011;1956;53.482;10.238;2022-07-01T06:43:43;8.70;;;3.50;;
3881;SDS011;1956;53.482;10.238;2022-07-01T06:48:43;7.87;;;2.97;;
3881;SDS011;1956;53.482;10.238;2022-07-01T06:53:43;8.47;;;3.40;;
3881;SDS011;1956;53.482;10.238;2022-07-01T06:58:46;15.60;;;4.07;;
3881;SDS011;1956;53.482;10.238;2022-07-01T07:03:47;5.53;;;3.73;;
3881;SDS011;1956;53.482;10.238;2022-07-01T07:08:47;9.23;;;4.50;;
3881;SDS011;1956;53.482;10.238;2022-07-01T07:13:48;11.60;;;4.50;;
3881;SDS011;1956;53.482;10.238;2022-07-01T07:18:49;8.50;;;4.90;;
3881;SDS011;1956;53.482;10.238;2022-07-01T07:23:50;10.80;;;4.87;;
3881;SDS011;1956;53.482;10.238;2022-07-01T07:28:51;5.60;;;3.50;;
3881;SDS011;1956;53.482;10.238;2022-07-01T07:33:51;5.57;;;3.73;;
3881;SDS011;1956;53.482;10.238;2022-07-01T07:38:51;5.67;;;4.60;;
3881;SDS011;1956;53.482;10.238;2022-07-01T07:43:52;7.30;;;5.30;;
3881;SDS011;1956;53.482;10.238;2022-07-01T07:48:52;7.80;;;3.97;;
3881;SDS011;1956;53.482;10.238;2022-07-01T07:53:53;5.93;;;3.60;;
3881;SDS011;1956;53.482;10.238;2022-07-01T07:58:53;6.63;;;3.23;;
3881;SDS011;1956;53.482;10.238;2022-07-01T08:03:53;4.10;;;3.07;;
3881;SDS011;1956;53.482;10.238;2022-07-01T08:08:55;4.67;;;3.27;;
3881;SDS011;1956;53.482;10.238;2022-07-01T08:13:56;6.13;;;3.73;;
3881;SDS011;1956;53.482;10.238;2022-07-01T08:18:56;9.80;;;4.87;;
3881;SDS011;1956;53.482;10.238;2022-07-01T08:23:56;7.57;;;4.13;;
3881;SDS011;1956;53.482;10.238;2022-07-01T08:28:57;6.40;;;4.40;;
3881;SDS011;1956;53.482;10.238;2022-07-01T08:33:57;6.10;;;4.30;;
3881;SDS011;1956;53.482;10.238;2022-07-01T08:38:58;6.20;;;4.10;;
3881;SDS011;1956;53.482;10.238;2022-07-01T08:43:58;4.20;;;3.80;;
3881;SDS011;1956;53.482;10.238;2022-07-01T08:48:59;6.00;;;4.10;;
3881;SDS011;1956;53.482;10.238;2022-07-01T08:53:59;7.63;;;4.70;;
3881;SDS011;1956;53.482;10.238;2022-07-01T08:59:00;4.83;;;4.37;;
3881;SDS011;1956;53.482;10.238;2022-07-01T09:04:18;8.90;;;4.73;;
3881;SDS011;1956;53.482;10.238;2022-07-01T09:09:20;5.40;;;4.90;;
3881;SDS011;1956;53.482;10.238;2022-07-01T09:14:22;5.93;;;5.33;;
3881;SDS011;1956;53.482;10.238;2022-07-01T09:19:24;10.73;;;5.30;;
3881;SDS011;1956;53.482;10.238;2022-07-01T09:24:29;4.27;;;3.87;;
3881;SDS011;1956;53.482;10.238;2022-07-01T09:29:51;8.93;;;3.90;;
3881;SDS011;1956;53.482;10.238;2022-07-01T09:34:52;3.80;;;3.40;;
3881;SDS011;1956;53.482;10.238;2022-07-01T09:39:54;5.10;;;3.47;;
3881;SDS011;1956;53.482;10.238;2022-07-01T09:44:59;5.50;;;3.63;;
3881;SDS011;1956;53.482;10.238;2022-07-01T09:50:06;5.53;;;3.90;;
3881;SDS011;1956;53.482;10.238;2022-07-01T09:55:07;4.63;;;4.00;;
3881;SDS011;1956;53.482;10.238;2022-07-01T10:00:08;5.60;;;4.33;;
3881;SDS011;1956;53.482;10.238;2022-07-01T10:05:09;4.80;;;3.93;;
3881;SDS011;1956;53.482;10.238;2022-07-01T10:16:10;4.90;;;4.40;;
3881;SDS011;1956;53.482;10.238;2022-07-01T10:21:24;5.63;;;5.07;;
3881;SDS011;1956;53.482;10.238;2022-07-01T10:26:28;10.00;;;5.13;;
3881;SDS011;1956;53.482;10.238;2022-07-01T10:31:36;6.40;;;4.27;;
3881;SDS011;1956;53.482;10.238;2022-07-01T10:36:37;5.40;;;4.87;;
3881;SDS011;1956;53.482;10.238;2022-07-01T10:41:38;5.33;;;4.50;;
3881;SDS011;1956;53.482;10.238;2022-07-01T10:46:45;10.47;;;4.80;;
3881;SDS011;1956;53.482;10.238;2022-07-01T10:51:57;8.10;;;4.70;;
3881;SDS011;1956;53.482;10.238;2022-07-01T10:57:03;6.70;;;4.40;;
3881;SDS011;1956;53.482;10.238;2022-07-01T11:02:37;7.93;;;5.47;;
3881;SDS011;1956;53.482;10.238;2022-07-01T11:07:39;7.63;;;5.13;;
3881;SDS011;1956;53.482;10.238;2022-07-01T11:12:43;7.87;;;4.90;;
3881;SDS011;1956;53.482;10.238;2022-07-01T11:17:49;8.80;;;6.10;;
3881;SDS011;1956;53.482;10.238;2022-07-01T11:22:50;13.63;;;7.03;;
3881;SDS011;1956;53.482;10.238;2022-07-01T11:27:51;6.47;;;5.87;;
3881;SDS011;1956;53.482;10.238;2022-07-01T11:32:53;9.77;;;6.40;;
3881;SDS011;1956;53.482;10.238;2022-07-01T11:38:04;8.33;;;7.20;;
3881;SDS011;1956;53.482;10.238;2022-07-01T11:43:24;9.17;;;7.53;;
3881;SDS011;1956;53.482;10.238;2022-07-01T11:48:37;9.60;;;8.03;;
3881;SDS011;1956;53.482;10.238;2022-07-01T11:53:39;14.80;;;9.20;;
3881;SDS011;1956;53.482;10.238;2022-07-01T11:58:45;11.23;;;8.60;;
3881;SDS011;1956;53.482;10.238;2022-07-01T12:03:49;10.17;;;8.00;;
3881;SDS011;1956;53.482;10.238;2022-07-01T12:08:50;10.30;;;8.53;;
3881;SDS011;1956;53.482;10.238;2022-07-01T12:13:51;10.00;;;8.90;;
3881;SDS011;1956;53.482;10.238;2022-07-01T12:18:53;15.20;;;9.40;;
3881;SDS011;1956;53.482;10.238;2022-07-01T12:24:07;13.07;;;9.57;;
3881;SDS011;1956;53.482;10.238;2022-07-01T12:29:09;13.77;;;9.70;;
3881;SDS011;1956;53.482;10.238;2022-07-01T12:34:09;16.93;;;11.03;;
3881;SDS011;1956;53.482;10.238;2022-07-01T12:39:10;17.70;;;10.37;;
3881;SDS011;1956;53.482;10.238;2022-07-01T12:44:23;13.37;;;10.80;;
3881;SDS011;1956;53.482;10.238;2022-07-01T12:49:25;11.43;;;10.20;;
3881;SDS011;1956;53.482;10.238;2022-07-01T12:54:32;10.70;;;9.70;;
3881;SDS011;1956;53.482;10.238;2022-07-01T12:59:34;12.20;;;9.00;;
3881;SDS011;1956;53.482;10.238;2022-07-01T13:04:34;11.87;;;10.40;;
3881;SDS011;1956;53.482;10.238;2022-07-01T13:09:34;14.10;;;8.60;;
3881;SDS011;1956;53.482;10.238;2022-07-01T13:14:35;12.30;;;9.20;;
3881;SDS011;1956;53.482;10.238;2022-07-01T13:19:35;9.43;;;8.23;;
3881;SDS011;1956;53.482;10.238;2022-07-01T13:24:35;13.53;;;8.87;;
3881;SDS011;1956;53.482;10.238;2022-07-01T13:29:36;10.13;;;7.47;;
3881;SDS011;1956;53.482;10.238;2022-07-01T13:34:36;12.80;;;8.63;;
3881;SDS011;1956;53.482;10.238;2022-07-01T13:39:37;18.80;;;8.13;;
3881;SDS011;1956;53.482;10.238;2022-07-01T13:44:37;9.67;;;6.20;;
3881;SDS011;1956;53.482;10.238;2022-07-01T13:49:38;6.13;;;5.53;;
3881;SDS011;1956;53.482;10.238;2022-07-01T13:54:38;5.97;;;5.37;;
3881;SDS011;1956;53.482;10.238;2022-07-01T13:59:39;10.10;;;4.97;;
3881;SDS011;1956;53.482;10.238;2022-07-01T14:04:40;9.63;;;4.00;;
3881;SDS011;1956;53.482;10.238;2022-07-01T14:09:40;6.40;;;5.20;;
3881;SDS011;1956;53.482;10.238;2022-07-01T14:14:43;8.50;;;5.23;;
3881;SDS011;1956;53.482;10.238;2022-07-01T14:19:43;6.00;;;5.27;;
3881;SDS011;1956;53.482;10.238;2022-07-01T14:24:44;7.53;;;5.00;;
3881;SDS011;1956;53.482;10.238;2022-07-01T14:29:44;5.47;;;4.97;;
3881;SDS011;1956;53.482;10.238;2022-07-01T14:34:45;8.13;;;4.77;;
3881;SDS011;1956;53.482;10.238;2022-07-01T14:39:45;8.13;;;4.40;;
3881;SDS011;1956;53.482;10.238;2022-07-01T14:44:45;6.07;;;5.50;;
3881;SDS011;1956;53.482;10.238;2022-07-01T14:49:46;6.80;;;5.60;;
3881;SDS011;1956;53.482;10.238;2022-07-01T14:54:46;8.40;;;5.50;;
3881;SDS011;1956;53.482;10.238;2022-07-01T14:59:47;5.13;;;4.63;;
3881;SDS011;1956;53.482;10.238;2022-07-01T15:04:47;5.53;;;5.00;;
3881;SDS011;1956;53.482;10.238;2022-07-01T15:09:48;6.10;;;5.50;;
3881;SDS011;1956;53.482;10.238;2022-07-01T15:14:48;8.30;;;5.00;;
3881;SDS011;1956;53.482;10.238;2022-07-01T15:19:49;5.77;;;5.13;;
3881;SDS011;1956;53.482;10.238;2022-07-01T15:24:49;5.70;;;4.97;;
3881;SDS011;1956;53.482;10.238;2022-07-01T15:29:50;6.70;;;5.20;;
3881;SDS011;1956;53.482;10.238;2022-07-01T15:34:50;15.20;;;7.40;;
3881;SDS011;1956;53.482;10.238;2022-07-01T15:39:50;9.50;;;7.43;;
3881;SDS011;1956;53.482;10.238;2022-07-01T15:44:51;10.87;;;7.70;;
3881;SDS011;1956;53.482;10.238;2022-07-01T15:49:51;13.13;;;8.27;;
3881;SDS011;1956;53.482;10.238;2022-07-01T15:54:52;9.37;;;7.50;;
3881;SDS011;1956;53.482;10.238;2022-07-01T15:59:52;13.23;;;8.87;;
3881;SDS011;1956;53.482;10.238;2022-07-01T16:04:54;14.63;;;9.30;;
3881;SDS011;1956;53.482;10.238;2022-07-01T16:09:58;10.67;;;9.20;;
3881;SDS011;1956;53.482;10.238;2022-07-01T16:15:04;11.47;;;9.73;;
3881;SDS011;1956;53.482;10.238;2022-07-01T16:20:06;11.80;;;9.27;;
3881;SDS011;1956;53.482;10.238;2022-07-01T16:25:07;9.97;;;8.70;;
3881;SDS011;1956;53.482;10.238;2022-07-01T16:30:11;11.70;;;9.97;;
3881;SDS011;1956;53.482;10.238;2022-07-01T16:35:11;9.87;;;8.80;;
3881;SDS011;1956;53.482;10.238;2022-07-01T16:40:12;9.70;;;8.13;;
3881;SDS011;1956;53.482;10.238;2022-07-01T16:45:16;13.80;;;8.47;;
3881;SDS011;1956;53.482;10.238;2022-07-01T16:50:16;12.50;;;9.03;;
3881;SDS011;1956;53.482;10.238;2022-07-01T16:55:18;13.20;;;8.40;;
3881;SDS011;1956;53.482;10.238;2022-07-01T17:00:19;14.00;;;10.03;;
3881;SDS011;1956;53.482;10.238;2022-07-01T17:05:20;11.60;;;9.87;;
3881;SDS011;1956;53.482;10.238;2022-07-01T17:10:20;13.17;;;10.60;;
3881;SDS011;1956;53.482;10.238;2022-07-01T17:15:22;10.20;;;9.20;;
3881;SDS011;1956;53.482;10.238;2022-07-01T17:20:22;14.00;;;12.60;;
3881;SDS011;1956;53.482;10.238;2022-07-01T17:25:27;12.73;;;11.20;;
3881;SDS011;1956;53.482;10.238;2022-07-01T17:30:41;12.00;;;10.07;;
3881;SDS011;1956;53.482;10.238;2022-07-01T17:36:12;15.37;;;12.03;;
3881;SDS011;1956;53.482;10.238;2022-07-01T17:41:16;13.80;;;11.17;;
3881;SDS011;1956;53.482;10.238;2022-07-01T17:46:18;14.43;;;12.23;;
3881;SDS011;1956;53.482;10.238;2022-07-01T17:51:19;13.03;;;11.00;;
3881;SDS011;1956;53.482;10.238;2022-07-01T17:56:21;16.13;;;11.67;;
3881;SDS011;1956;53.482;10.238;2022-07-01T18:01:21;12.93;;;10.90;;
3881;SDS011;1956;53.482;10.238;2022-07-01T18:06:22;12.63;;;10.27;;
3881;SDS011;1956;53.482;10.238;2022-07-01T18:22:44;12.40;;;8.87;;
3881;SDS011;1956;53.482;10.238;2022-07-01T18:27:46;13.73;;;8.00;;
3881;SDS011;1956;53.482;10.238;2022-07-01T18:32:57;8.63;;;6.47;;
3881;SDS011;1956;53.482;10.238;2022-07-01T18:38:01;10.67;;;5.80;;
3881;SDS011;1956;53.482;10.238;2022-07-01T18:43:03;11.43;;;6.13;;
3881;SDS011;1956;53.482;10.238;2022-07-01T18:48:05;9.10;;;6.00;;
3881;SDS011;1956;53.482;10.238;2022-07-01T18:53:05;7.67;;;5.67;;
3881;SDS011;1956;53.482;10.238;2022-07-01T18:58:06;10.03;;;5.60;;
3881;SDS011;1956;53.482;10.238;2022-07-01T19:03:06;10.70;;;5.67;;
3881;SDS011;1956;53.482;10.238;2022-07-01T19:08:07;7.73;;;5.90;;
3881;SDS011;1956;53.482;10.238;2022-07-01T19:13:07;7.60;;;5.80;;
3881;SDS011;1956;53.482;10.238;2022-07-01T19:18:10;6.80;;;5.73;;
3881;SDS011;1956;53.482;10.238;2022-07-01T19:23:11;10.53;;;6.00;;
3881;SDS011;1956;53.482;10.238;2022-07-01T19:28:11;10.90;;;6.30;;
3881;SDS011;1956;53.482;10.238;2022-07-01T19:33:12;8.37;;;6.40;;
3881;SDS011;1956;53.482;10.238;2022-07-01T19:38:12;7.77;;;6.30;;
3881;SDS011;1956;53.482;10.238;2022-07-01T19:43:13;11.23;;;5.80;;
3881;SDS011;1956;53.482;10.238;2022-07-01T19:48:13;6.73;;;6.03;;
3881;SDS011;1956;53.482;10.238;2022-07-01T19:53:14;9.03;;;5.30;;
3881;SDS011;1956;53.482;10.238;2022-07-01T19:58:14;10.07;;;8.10;;
3881;SDS011;1956;53.482;10.238;2022-07-01T20:03:14;13.67;;;7.40;;
3881;SDS011;1956;53.482;10.238;2022-07-01T20:08:15;12.20;;;7.00;;
3881;SDS011;1956;53.482;10.238;2022-07-01T20:13:16;11.13;;;6.40;;
3881;SDS011;1956;53.482;10.238;2022-07-01T20:18:17;10.10;;;5.40;;
3881;SDS011;1956;53.482;10.238;2022-07-01T20:23:17;10.50;;;4.97;;
3881;SDS011;1956;53.482;10.238;2022-07-01T20:28:18;8.77;;;4.40;;
3881;SDS011;1956;53.482;10.238;2022-07-01T20:33:20;4.93;;;4.13;;
3881;SDS011;1956;53.482;10.238;2022-07-01T20:38:20;7.00;;;4.50;;
3881;SDS011;1956;53.482;10.238;2022-07-01T20:43:21;24.10;;;5.07;;
3881;SDS011;1956;53.482;10.238;2022-07-01T20:48:21;10.63;;;4.83;;
3881;SDS011;1956;53.482;10.238;2022-07-01T20:53:21;9.93;;;5.00;;
3881;SDS011;1956;53.482;10.238;2022-07-01T20:58:22;12.97;;;5.63;;
3881;SDS011;1956;53.482;10.238;2022-07-01T21:03:23;10.03;;;5.73;;
3881;SDS011;1956;53.482;10.238;2022-07-01T21:08:24;6.63;;;4.90;;
3881;SDS011;1956;53.482;10.238;2022-07-01T21:13:25;11.70;;;4.80;;
3881;SDS011;1956;53.482;10.238;2022-07-01T21:18:25;11.43;;;5.27;;
3881;SDS011;1956;53.482;10.238;2022-07-01T21:23:26;8.73;;;5.33;;
3881;SDS011;1956;53.482;10.238;2022-07-01T21:28:26;14.20;;;5.97;;
3881;SDS011;1956;53.482;10.238;2022-07-01T21:33:28;8.43;;;5.37;;
3881;SDS011;1956;53.482;10.238;2022-07-01T21:38:31;7.33;;;5.50;;
3881;SDS011;1956;53.482;10.238;2022-07-01T21:43:31;8.60;;;6.07;;
3881;SDS011;1956;53.482;10.238;2022-07-01T21:48:32;13.40;;;6.50;;
3881;SDS011;1956;53.482;10.238;2022-07-01T21:53:35;9.77;;;6.83;;
3881;SDS011;1956;53.482;10.238;2022-07-01T21:58:40;11.30;;;7.10;;
3881;SDS011;1956;53.482;10.238;2022-07-01T22:03:41;10.20;;;7.20;;
3881;SDS011;1956;53.482;10.238;2022-07-01T22:08:41;8.57;;;6.80;;
3881;SDS011;1956;53.482;10.238;2022-07-01T22:19:05;8.00;;;7.07;;
3881;SDS011;1956;53.482;10.238;2022-07-01T22:24:06;8.00;;;6.97;;
3881;SDS011;1956;53.482;10.238;2022-07-01T22:29:08;10.00;;;6.63;;
3881;SDS011;1956;53.482;10.238;2022-07-01T22:34:08;10.07;;;7.07;;
3881;SDS011;1956;53.482;10.238;2022-07-01T22:39:09;14.10;;;6.73;;
3881;SDS011;1956;53.482;10.238;2022-07-01T22:44:09;8.00;;;6.63;;
3881;SDS011;1956;53.482;10.238;2022-07-01T23:00:03;10.80;;;7.67;;
3881;SDS011;1956;53.482;10.238;2022-07-01T23:05:10;10.23;;;7.23;;
3881;SDS011;1956;53.482;10.238;2022-07-01T23:10:15;10.70;;;8.10;;
3881;SDS011;1956;53.482;10.238;2022-07-01T23:15:16;11.23;;;7.30;;
3881;SDS011;1956;53.482;10.238;2022-07-01T23:20:35;15.83;;;8.07;;
3881;SDS011;1956;53.482;10.238;2022-07-01T23:25:40;10.43;;;7.93;;
3881;SDS011;1956;53.482;10.238;2022-07-01T23:30:40;12.73;;;7.80;;
3881;SDS011;1956;53.482;10.238;2022-07-01T23:35:41;15.70;;;8.70;;
3881;SDS011;1956;53.482;10.238;2022-07-01T23:40:42;14.27;;;8.70;;
3881;SDS011;1956;53.482;10.238;2022-07-01T23:45:42;17.33;;;9.50;;
3881;SDS011;1956;53.482;10.238;2022-07-01T23:50:43;13.30;;;9.70;;
3881;SDS011;1956;53.482;10.238;2022-07-01T23:55:43;15.10;;;10.20;;
